Terminal Aerodrome Forecast
Issued by NWS Duluth, MN

Home | Current Version | Previous Version | Text Only | Print | Product List | Glossary On
Versions: 1 2 3 4 5 6 7 8 9 10 11 12 13 14 15 16 17 18 19 20 21 22 23 24
000
FTUS43 KDLH 252300
TAFINL
TAF
KINL 252332Z 2600/2624 30015G25KT 6SM -SN BR SCT008 OVC025
      TEMPO 2600/2602 1SM -SN OVC008
     FM260600 33010G18KT P6SM OVC030
     FM261000 35011KT P6SM BKN035
     FM261800 36010KT P6SM SCT050=

USA.gov is the U.S. government's official web portal to all federal, state and local government web resources and services.